Time;durP1;ratioP1;P1;durP2;ratioP2;P2;SDS_P1;SDS_P2;PMS_P1;PMS_P2;Temp;Humidity;BMP_temperature;BMP_pressure;BME280_temperature;BME280_humidity;BME280_pressure;Samples;Min_cycle;Max_cycle;Signal;HPM_P1;HPM_P2
2022/05/13 00:01:23;;;;;;;10.27;5.73;;;;;;;39.12;41.79;101116.19;4977547;28;20401;-69
2022/05/13 00:03:49;;;;;;;11.97;4.87;;;;;;;39.12;42.02;101112.66;4977321;28;20428;-70
2022/05/13 00:06:15;;;;;;;11.87;6.00;;;;;;;39.12;42.19;101105.31;4977243;28;20427;-70
2022/05/13 00:08:41;;;;;;;17.07;5.60;;;;;;;39.09;42.38;101095.06;4977197;28;20958;-69
2022/05/13 00:11:08;;;;;;;19.63;7.37;;;;;;;39.04;42.79;101087.09;4977049;28;20417;-70
2022/05/13 00:13:35;;;;;;;14.63;6.20;;;;;;;39.12;41.85;101083.63;4961076;28;20902;-68
2022/05/13 00:16:04;;;;;;;19.60;6.60;;;;;;;39.03;41.86;101082.75;4976995;28;20511;-67
2022/05/13 00:18:30;;;;;;;18.93;5.50;;;;;;;39.07;41.84;101078.31;4961234;28;20492;-70
2022/05/13 00:20:58;;;;;;;10.63;5.13;;;;;;;39.00;42.07;101069.81;4977102;28;20451;-69
2022/05/13 00:23:24;;;;;;;8.73;4.83;;;;;;;38.87;42.12;101063.34;4976907;28;20870;-69
2022/05/13 00:25:50;;;;;;;13.80;6.33;;;;;;;38.90;42.38;101060.00;4976836;28;20421;-68
2022/05/13 00:28:16;;;;;;;16.30;5.27;;;;;;;38.95;42.10;101059.09;4977426;28;20424;-68
2022/05/13 00:30:45;;;;;;;10.23;4.90;;;;;;;38.83;42.29;101058.84;4977144;28;20429;-69
2022/05/13 00:33:11;;;;;;;11.57;6.00;;;;;;;38.63;42.80;101058.19;4976995;28;20406;-68
2022/05/13 00:35:38;;;;;;;9.67;5.30;;;;;;;38.78;42.39;101054.34;4976531;28;20468;-67
2022/05/13 00:38:04;;;;;;;12.10;5.27;;;;;;;38.82;42.32;101059.94;4960895;28;20393;-67
2022/05/13 00:40:30;;;;;;;19.03;7.57;;;;;;;38.86;42.59;101058.25;4976494;28;21024;-67
2022/05/13 00:43:05;;;;;;;13.50;5.57;;;;;;;38.49;43.38;101049.31;4960260;28;20548;-69
2022/05/13 00:45:34;;;;;;;18.60;9.57;;;;;;;38.61;43.38;101040.59;4976487;28;20423;-70
2022/05/13 00:48:01;;;;;;;15.90;5.90;;;;;;;38.63;43.61;101041.91;4993698;28;20944;-69
2022/05/13 00:50:34;;;;;;;9.03;5.63;;;;;;;38.69;43.07;101034.47;4993846;28;20428;-68
2022/05/13 00:53:02;;;;;;;10.43;4.60;;;;;;;38.81;42.42;101029.31;4976314;28;20416;-68
2022/05/13 00:55:42;;;;;;;10.53;6.20;;;;;;;38.88;42.24;101028.88;4976105;28;20473;-68
2022/05/13 00:58:17;;;;;;;16.30;6.60;;;;;;;38.94;42.03;101017.59;4976285;28;20992;-68
2022/05/13 01:00:43;;;;;;;22.30;5.37;;;;;;;38.86;42.09;101023.78;4976236;28;20432;-68
2022/05/13 01:03:11;;;;;;;9.00;6.73;;;;;;;38.93;41.96;101026.06;4960017;28;20440;-67
2022/05/13 01:05:38;;;;;;;21.07;6.83;;;;;;;38.88;42.27;101020.75;4960178;28;20416;-69
2022/05/13 01:08:07;;;;;;;15.10;6.33;;;;;;;38.83;42.32;101023.59;4976069;28;20445;-68
2022/05/13 01:10:36;;;;;;;14.67;5.70;;;;;;;38.82;42.27;101013.84;4975944;28;20452;-68
2022/05/13 01:13:08;;;;;;;11.80;6.47;;;;;;;38.91;41.97;101007.34;4944335;28;20448;-69
2022/05/13 01:15:38;;;;;;;11.10;5.50;;;;;;;39.03;41.95;101006.00;4975882;28;20980;-69
2022/05/13 01:18:07;;;;;;;12.10;4.87;;;;;;;38.61;43.05;101008.91;4975884;28;20426;-68
2022/05/13 01:20:46;;;;;;;21.23;5.10;;;;;;;38.73;42.95;100999.41;4975811;28;20432;-68
2022/05/13 01:23:22;;;;;;;13.27;8.53;;;;;;;38.60;43.60;100992.91;4975737;28;20459;-70
2022/05/13 01:26:01;;;;;;;17.00;6.60;;;;;;;38.61;43.10;100997.22;4960708;28;20424;-68
2022/05/13 01:28:34;;;;;;;11.80;7.17;;;;;;;38.63;42.87;100997.75;4993162;28;20441;-67
2022/05/13 01:31:04;;;;;;;13.70;7.23;;;;;;;38.69;42.83;100991.88;4975697;28;21001;-67
2022/05/13 01:33:30;;;;;;;11.93;6.70;;;;;;;38.85;42.16;100984.19;4975534;28;20414;-68
2022/05/13 01:35:59;;;;;;;8.30;5.30;;;;;;;38.66;42.87;100978.94;4975509;28;20471;-69
2022/05/13 01:38:33;;;;;;;16.77;11.87;;;;;;;38.38;44.04;100983.69;4975580;28;20420;-67
2022/05/13 01:41:01;;;;;;;20.93;15.67;;;;;;;37.98;44.94;100993.47;4993022;28;20791;-70
2022/05/13 01:43:28;;;;;;;26.60;14.40;;;;;;;37.95;45.34;100980.53;4972310;28;20483;-68
2022/05/13 01:45:54;;;;;;;18.23;15.40;;;;;;;37.95;45.09;100985.97;4956117;28;20549;-68
2022/05/13 01:48:21;;;;;;;31.03;19.10;;;;;;;37.70;45.92;100992.66;4973500;28;20398;-68
2022/05/13 01:50:47;;;;;;;29.27;20.60;;;;;;;37.51;46.08;100978.44;4956076;28;20941;-67
2022/05/13 01:53:13;;;;;;;28.27;18.63;;;;;;;37.59;46.07;100983.16;4972267;28;20546;-70
2022/05/13 01:55:42;;;;;;;27.03;20.00;;;;;;;37.76;45.67;100977.94;4972013;28;20481;-69
2022/05/13 01:58:17;;;;;;;29.27;19.70;;;;;;;37.63;46.16;100976.84;4955761;28;20461;-69
2022/05/13 02:00:45;;;;;;;32.57;20.93;;;;;;;37.62;45.91;100983.31;4971958;28;20428;-69
2022/05/13 02:05:57;;;;;;;22.37;18.80;;;;;;;37.91;45.03;100977.63;4973576;28;20393;-69
2022/05/13 02:08:23;;;;;;;26.80;17.90;;;;;;;38.13;44.66;100985.03;4971831;28;20441;-69
2022/05/13 02:10:50;;;;;;;27.07;17.33;;;;;;;37.87;45.04;100989.38;4971931;28;20456;-68
2022/05/13 02:13:17;;;;;;;29.43;19.20;;;;;;;38.00;44.84;100985.03;4955920;28;20426;-67
2022/05/13 02:15:43;;;;;;;33.40;20.03;;;;;;;37.56;45.83;100987.25;4955904;28;20461;-68
2022/05/13 02:18:10;;;;;;;26.00;20.13;;;;;;;37.53;46.09;100981.63;4973046;28;20800;-69
2022/05/13 02:20:37;;;;;;;31.17;17.87;;;;;;;37.58;45.59;100970.72;4971714;28;20457;-69
2022/05/13 02:23:03;;;;;;;37.70;23.13;;;;;;;37.37;46.20;100973.81;4972114;28;20422;-70
2022/05/13 02:25:30;;;;;;;34.33;20.70;;;;;;;37.34;46.37;100968.22;4971690;28;20423;-68
2022/05/13 02:28:00;;;;;;;32.93;19.73;;;;;;;37.59;45.74;100967.72;4971752;28;21086;-69
2022/05/13 02:30:28;;;;;;;33.33;21.57;;;;;;;37.48;45.85;100968.22;4971555;28;20900;-69
2022/05/13 02:32:55;;;;;;;34.20;21.13;;;;;;;37.63;45.30;100976.84;4955697;28;20481;-69
2022/05/13 02:35:21;;;;;;;33.17;21.07;;;;;;;37.67;45.53;100966.19;4972867;28;20600;-69
2022/05/13 02:37:47;;;;;;;26.23;18.37;;;;;;;37.63;45.45;100971.44;4971678;28;20485;-69
2022/05/13 02:40:14;;;;;;;30.50;21.90;;;;;;;37.76;45.22;100974.44;4971698;28;20942;-69
2022/05/13 02:42:40;;;;;;;33.70;18.63;;;;;;;37.82;44.54;100973.25;4972755;28;20442;-68
2022/05/13 02:45:10;;;;;;;25.43;17.30;;;;;;;38.04;43.80;100975.19;4971474;28;20474;-70
2022/05/13 02:47:37;;;;;;;18.50;15.40;;;;;;;37.85;44.03;100978.84;4972909;28;20407;-69
2022/05/13 02:50:17;;;;;;;20.93;15.97;;;;;;;37.91;44.12;100985.75;4971414;28;20454;-68
2022/05/13 02:52:44;;;;;;;23.77;16.07;;;;;;;37.72;44.14;100985.03;4971573;28;20985;-68
2022/05/13 02:55:11;;;;;;;23.90;15.97;;;;;;;37.50;44.90;100980.31;4971387;28;20465;-68
2022/05/13 02:57:37;;;;;;;23.63;16.47;;;;;;;37.58;44.15;100990.47;4972648;28;20541;-67
2022/05/13 03:00:08;;;;;;;21.50;14.77;;;;;;;37.43;44.89;101000.78;4971457;28;20441;-67
2022/05/13 03:02:34;;;;;;;22.60;14.73;;;;;;;37.42;44.67;101012.69;4971378;28;20458;-67
2022/05/13 03:05:00;;;;;;;20.87;13.63;;;;;;;37.17;44.56;101016.63;4971300;28;20853;-68
2022/05/13 03:07:27;;;;;;;20.83;14.10;;;;;;;37.28;44.44;101018.88;4971386;28;20434;-67
2022/05/13 03:09:53;;;;;;;18.43;13.70;;;;;;;37.17;44.37;101022.84;4972206;28;20492;-68
2022/05/13 03:12:19;;;;;;;18.63;13.40;;;;;;;37.39;44.13;101030.34;4975238;28;20422;-68
2022/05/13 03:14:45;;;;;;;23.83;13.80;;;;;;;37.38;44.07;101021.44;4974853;28;21044;-68
2022/05/13 03:17:11;;;;;;;19.57;13.57;;;;;;;37.50;43.56;101026.31;4976050;28;20446;-68
2022/05/13 03:19:39;;;;;;;21.83;14.37;;;;;;;37.35;43.99;101032.84;4974842;28;20931;-68
2022/05/13 03:22:06;;;;;;;18.47;12.43;;;;;;;37.49;43.50;101032.84;4975065;28;20448;-70
2022/05/13 03:24:32;;;;;;;16.77;13.20;;;;;;;37.38;43.21;101026.00;4974555;28;20441;-70
2022/05/13 03:26:59;;;;;;;12.90;9.73;;;;;;;37.20;44.52;101029.56;4974777;28;20912;-70
2022/05/13 03:29:25;;;;;;;17.37;11.33;;;;;;;37.18;44.65;101023.66;4974651;28;20426;-70
2022/05/13 03:31:51;;;;;;;15.37;11.37;;;;;;;37.49;43.67;101021.22;4975831;28;20492;-67
2022/05/13 03:34:17;;;;;;;20.73;12.50;;;;;;;37.30;43.54;101027.47;4974660;28;20399;-68
2022/05/13 03:36:43;;;;;;;19.03;11.80;;;;;;;37.49;43.21;101024.72;4975878;28;20398;-67
2022/05/13 03:39:09;;;;;;;19.70;13.40;;;;;;;37.39;43.32;101027.63;4975838;28;20406;-68
2022/05/13 03:41:35;;;;;;;15.50;13.27;;;;;;;37.45;43.44;101036.47;4958451;28;20421;-68
2022/05/13 03:44:01;;;;;;;21.87;12.20;;;;;;;37.48;43.29;101035.84;4974072;28;20477;-68
2022/05/13 03:46:27;;;;;;;19.10;13.17;;;;;;;37.46;43.61;101033.47;4974381;28;20465;-67
2022/05/13 03:48:55;;;;;;;16.70;10.47;;;;;;;36.94;44.74;101029.97;4974289;28;20453;-67
2022/05/13 03:51:22;;;;;;;16.67;12.37;;;;;;;37.12;44.19;101039.94;4974337;28;20839;-67
2022/05/13 03:53:48;;;;;;;20.23;12.50;;;;;;;36.96;44.39;101035.13;4974302;28;20422;-69
2022/05/13 03:56:14;;;;;;;23.57;11.47;;;;;;;37.01;44.26;101038.50;4975389;28;20480;-68
2022/05/13 03:58:40;;;;;;;24.40;11.47;;;;;;;37.03;44.46;101038.25;4974026;28;20963;-69
2022/05/13 04:01:06;;;;;;;21.57;12.10;;;;;;;36.86;44.62;101044.16;4958031;28;20425;-68
2022/05/13 04:03:32;;;;;;;17.70;11.47;;;;;;;37.01;44.61;101043.13;4975375;28;20438;-67
2022/05/13 04:08:58;;;;;;;29.17;18.43;;;;;;;36.98;44.59;101047.22;4975360;28;20846;-68
2022/05/13 04:11:33;;;;;;;25.93;16.90;;;;;;;36.89;44.39;101050.88;4973866;28;20493;-70
2022/05/13 04:16:44;;;;;;;25.23;17.20;;;;;;;37.25;43.94;101045.69;4975292;28;20394;-67
2022/05/13 04:19:11;;;;;;;19.40;12.77;;;;;;;37.19;43.74;101052.28;4973819;28;20927;-68
2022/05/13 04:21:40;;;;;;;24.23;11.83;;;;;;;37.22;43.68;101057.94;4972792;28;20418;-68
2022/05/13 04:24:09;;;;;;;18.10;12.60;;;;;;;37.18;43.81;101053.41;4957759;28;20513;-67
2022/05/13 04:26:36;;;;;;;16.10;10.53;;;;;;;37.13;43.72;101057.78;4957860;28;20911;-68
2022/05/13 04:29:02;;;;;;;23.17;13.97;;;;;;;37.10;43.69;101050.28;4973468;28;20525;-69
2022/05/13 04:31:31;;;;;;;21.13;12.43;;;;;;;37.27;43.33;101048.94;4973545;28;20428;-67
2022/05/13 04:33:58;;;;;;;21.97;13.00;;;;;;;37.38;43.31;101056.59;4973621;28;20422;-67
2022/05/13 04:36:25;;;;;;;22.20;12.50;;;;;;;37.49;43.21;101064.53;4957566;28;20488;-67
2022/05/13 04:38:53;;;;;;;22.17;14.60;;;;;;;37.18;43.45;101058.81;4973460;28;20492;-67
2022/05/13 04:44:06;;;;;;;18.90;12.97;;;;;;;37.33;43.70;101069.38;4985073;28;20472;-67
2022/05/13 04:46:32;;;;;;;23.30;13.47;;;;;;;37.48;42.75;101066.44;4960478;28;20488;-68
2022/05/13 04:48:59;;;;;;;22.90;13.87;;;;;;;37.43;43.66;101071.91;4976313;28;20416;-67
2022/05/13 04:51:26;;;;;;;18.33;14.40;;;;;;;37.40;43.23;101077.94;4976448;28;20425;-67
2022/05/13 04:53:55;;;;;;;28.33;14.67;;;;;;;37.35;43.13;101076.13;4976449;28;20409;-67
2022/05/13 04:56:22;;;;;;;25.50;14.50;;;;;;;37.46;43.12;101078.66;4976311;28;20928;-69
2022/05/13 04:58:49;;;;;;;23.27;14.40;;;;;;;37.53;43.40;101090.69;4976291;28;20409;-69
2022/05/13 05:01:17;;;;;;;25.63;15.87;;;;;;;37.48;42.88;101079.16;4976130;28;20409;-69
2022/05/13 05:03:44;;;;;;;25.07;16.43;;;;;;;37.23;43.51;101089.28;4976177;28;20421;-70
2022/05/13 05:06:11;;;;;;;26.80;20.93;;;;;;;37.18;43.54;101088.56;4976084;28;20413;-67
2022/05/13 05:08:38;;;;;;;29.37;22.57;;;;;;;37.28;43.58;101086.50;4993639;28;20401;-67
2022/05/13 05:11:07;;;;;;;40.23;24.77;;;;;;;37.13;43.96;101092.94;4975946;28;20417;-67
2022/05/13 05:13:39;;;;;;;31.63;22.10;;;;;;;37.29;43.67;101084.59;4993425;28;20396;-67
2022/05/13 05:16:06;;;;;;;29.97;21.90;;;;;;;37.30;43.19;101086.19;4960592;28;20503;-69
2022/05/13 05:18:33;;;;;;;37.10;24.93;;;;;;;37.46;43.28;101089.47;4975438;28;20414;-69
2022/05/13 05:21:00;;;;;;;33.53;23.20;;;;;;;37.56;43.07;101089.28;4959958;28;20401;-69
2022/05/13 05:23:30;;;;;;;25.70;18.70;;;;;;;37.38;43.26;101091.78;4975807;28;20416;-69
2022/05/13 05:25:57;;;;;;;28.00;17.57;;;;;;;37.10;44.32;101092.75;4993285;28;20401;-69
2022/05/13 05:28:23;;;;;;;23.10;16.70;;;;;;;37.03;44.09;101095.03;4993290;28;20386;-69
2022/05/13 05:30:51;;;;;;;35.67;17.77;;;;;;;37.23;43.63;101096.59;4975576;28;20441;-68
2022/05/13 05:33:17;;;;;;;21.40;16.03;;;;;;;37.35;43.58;101083.44;4959867;28;20409;-69
2022/05/13 05:35:43;;;;;;;32.73;20.27;;;;;;;37.42;43.69;101088.47;4975489;28;20467;-67
2022/05/13 05:38:10;;;;;;;26.60;21.67;;;;;;;37.51;43.23;101082.09;4975147;28;20430;-68
2022/05/13 05:40:37;;;;;;;39.57;26.90;;;;;;;37.55;42.99;101079.56;4975177;28;20944;-69
2022/05/13 05:43:15;;;;;;;49.53;30.17;;;;;;;37.52;43.03;101077.47;4974820;28;20413;-66
2022/05/13 05:45:42;;;;;;;46.03;32.33;;;;;;;37.53;43.13;101085.28;4960349;28;20504;-68
2022/05/13 05:48:11;;;;;;;40.57;32.37;;;;;;;37.59;42.97;101084.09;4959141;28;20431;-70
2022/05/13 05:50:37;;;;;;;42.80;32.93;;;;;;;37.57;43.11;101086.31;4975417;28;20487;-67
2022/05/13 05:53:03;;;;;;;53.57;34.43;;;;;;;37.58;43.18;101087.09;4975270;28;20422;-67
2022/05/13 05:58:16;;;;;;;40.90;29.80;;;;;;;37.40;43.44;101088.78;4992982;28;20912;-68
2022/05/13 06:00:46;;;;;;;41.53;29.47;;;;;;;36.83;44.80;101088.81;4974369;28;20493;-67
2022/05/13 06:03:12;;;;;;;33.33;26.67;;;;;;;36.55;45.47;101092.44;4992271;28;20552;-71
2022/05/13 06:05:39;;;;;;;61.40;27.10;;;;;;;36.22;45.84;101096.91;4974119;28;20537;-70
2022/05/13 06:08:06;;;;;;;45.40;31.20;;;;;;;36.15;46.76;101093.72;4977772;28;20405;-69
2022/05/13 06:10:35;;;;;;;46.43;31.87;;;;;;;36.16;46.39;101090.75;4974169;28;20405;-68
2022/05/13 06:13:02;;;;;;;45.90;28.00;;;;;;;36.26;46.17;101092.50;4992022;28;20953;-71
2022/05/13 06:15:29;;;;;;;46.23;32.10;;;;;;;36.31;46.21;101108.66;4974814;28;20588;-69
2022/05/13 06:17:56;;;;;;;62.53;31.97;;;;;;;36.56;45.71;101102.16;4974810;28;20441;-70
2022/05/13 06:20:29;;;;;;;56.93;36.33;;;;;;;36.75;44.97;101102.16;4974678;28;20429;-70
2022/05/13 06:22:55;;;;;;;52.60;40.20;;;;;;;36.96;44.74;101098.09;4974347;28;20425;-69
2022/05/13 06:25:22;;;;;;;52.00;38.40;;;;;;;36.93;44.99;101101.38;4973843;28;20798;-71
2022/05/13 06:27:52;;;;;;;48.23;32.13;;;;;;;37.19;44.33;101100.97;4973153;28;20419;-71
2022/05/13 06:30:26;;;;;;;49.40;29.40;;;;;;;36.98;44.49;101100.50;4990468;28;20465;-69
2022/05/13 06:32:54;;;;;;;45.00;27.70;;;;;;;37.05;44.61;101104.44;4990596;28;20404;-71
2022/05/13 06:35:21;;;;;;;49.33;25.63;;;;;;;37.07;44.70;101099.53;4972981;28;20461;-70
2022/05/13 06:37:47;;;;;;;35.80;22.47;;;;;;;37.16;44.65;101102.38;4990508;28;20817;-71
2022/05/13 06:40:13;;;;;;;29.67;19.20;;;;;;;37.38;44.33;101101.78;4975622;28;20941;-70
2022/05/13 06:42:39;;;;;;;35.70;20.63;;;;;;;37.58;43.86;101109.56;4992861;28;20414;-71
2022/05/13 06:45:06;;;;;;;38.87;22.63;;;;;;;37.72;43.55;101112.28;4971629;28;20441;-70
2022/05/13 06:47:33;;;;;;;32.53;19.30;;;;;;;37.73;43.00;101122.00;4983436;28;20984;-70
2022/05/13 06:50:03;;;;;;;26.70;20.30;;;;;;;38.06;42.76;101121.94;4983439;28;20455;-69
2022/05/13 06:52:29;;;;;;;29.83;19.37;;;;;;;38.29;42.02;101125.59;5002218;28;20401;-71
2022/05/13 06:54:56;;;;;;;34.33;22.13;;;;;;;38.19;42.66;101140.13;4983403;28;20889;-71
2022/05/13 06:57:22;;;;;;;36.17;20.90;;;;;;;38.28;42.13;101138.34;4985152;28;20448;-69
2022/05/13 06:59:48;;;;;;;37.60;22.63;;;;;;;37.76;43.71;101145.00;4987889;28;20415;-70
2022/05/13 07:02:17;;;;;;;43.33;21.47;;;;;;;37.78;43.48;101140.06;5003607;28;20484;-68
2022/05/13 07:04:44;;;;;;;35.50;20.43;;;;;;;37.74;43.52;101147.16;4987033;28;20812;-70
2022/05/13 07:07:11;;;;;;;30.53;15.70;;;;;;;38.05;43.42;101156.38;5004654;28;20409;-68
2022/05/13 07:09:38;;;;;;;30.70;19.00;;;;;;;38.00;43.14;101169.19;4993924;28;20503;-68
2022/05/13 07:12:05;;;;;;;30.53;18.40;;;;;;;38.07;43.01;101181.25;4981153;28;20409;-69
2022/05/13 07:14:32;;;;;;;26.10;18.10;;;;;;;38.17;43.13;101191.88;4997214;28;20440;-69
2022/05/13 07:16:58;;;;;;;26.10;16.40;;;;;;;38.05;43.06;101186.16;4997699;28;20412;-70
2022/05/13 07:19:24;;;;;;;23.50;16.57;;;;;;;38.06;43.22;101181.53;4981688;28;20425;-70
2022/05/13 07:21:51;;;;;;;20.07;16.87;;;;;;;38.22;42.91;101187.50;4986113;28;20445;-69
2022/05/13 07:24:17;;;;;;;29.13;18.03;;;;;;;37.92;43.65;101181.53;4979081;28;20421;-69
2022/05/13 07:26:43;;;;;;;28.20;18.97;;;;;;;37.92;43.61;101195.88;4995518;28;20448;-69
2022/05/13 07:29:09;;;;;;;31.13;20.23;;;;;;;37.97;43.33;101186.84;4986326;28;20432;-69
2022/05/13 07:31:39;;;;;;;39.20;20.13;;;;;;;38.04;43.53;101183.75;4987802;28;20421;-70
2022/05/13 07:34:05;;;;;;;31.80;17.57;;;;;;;38.16;43.32;101190.28;4986574;28;20459;-69
2022/05/13 07:36:32;;;;;;;25.03;18.00;;;;;;;38.10;43.59;101196.91;4983433;28;20460;-69
2022/05/13 07:41:44;;;;;;;31.70;19.30;;;;;;;38.06;43.77;101211.34;4960874;28;20428;-67
2022/05/13 07:44:11;;;;;;;25.27;16.43;;;;;;;38.01;43.63;101214.97;4994927;28;20465;-67
2022/05/13 07:46:38;;;;;;;27.00;15.37;;;;;;;37.86;44.21;101213.31;4977154;28;20413;-69
2022/05/13 07:49:06;;;;;;;25.73;16.53;;;;;;;37.85;44.37;101224.44;4977288;28;20413;-69
2022/05/13 07:51:32;;;;;;;25.23;17.57;;;;;;;37.99;43.52;101225.28;4977143;28;20437;-70
2022/05/13 07:53:58;;;;;;;26.93;17.27;;;;;;;37.79;44.24;101231.00;4977259;28;20396;-68
2022/05/13 07:56:24;;;;;;;21.60;14.37;;;;;;;37.82;43.68;101228.56;4975340;28;20552;-68
2022/05/13 07:58:50;;;;;;;22.63;14.77;;;;;;;37.88;43.81;101240.13;4977115;28;20421;-67
2022/05/13 08:01:17;;;;;;;27.37;13.90;;;;;;;37.92;43.70;101238.41;4977044;28;20799;-68
2022/05/13 08:03:44;;;;;;;32.90;15.13;;;;;;;38.05;43.70;101237.63;4977224;28;20796;-67
2022/05/13 08:06:13;;;;;;;29.27;13.53;;;;;;;37.98;43.78;101229.09;4979742;28;20417;-66
2022/05/13 08:08:43;;;;;;;17.47;11.67;;;;;;;37.83;43.70;101234.78;4994630;28;20386;-67
2022/05/13 08:11:12;;;;;;;35.33;15.97;;;;;;;38.11;43.26;101232.91;4976676;28;20417;-66
2022/05/13 08:13:39;;;;;;;24.63;14.87;;;;;;;37.93;43.65;101237.28;4977082;28;20418;-67
2022/05/13 08:16:08;;;;;;;23.77;14.93;;;;;;;38.09;43.39;101244.06;4961161;28;20457;-66
2022/05/13 08:18:35;;;;;;;23.60;15.60;;;;;;;37.97;43.29;101245.63;4976985;28;20505;-67
2022/05/13 08:21:01;;;;;;;31.20;16.63;;;;;;;37.55;44.88;101252.78;4994491;28;20465;-70
2022/05/13 08:23:28;;;;;;;31.80;18.07;;;;;;;37.92;43.90;101241.09;4961044;28;20409;-69
2022/05/13 08:25:54;;;;;;;31.00;16.10;;;;;;;38.21;43.74;101240.06;4961068;28;20942;-69
2022/05/13 08:28:24;;;;;;;24.23;16.23;;;;;;;38.20;43.27;101241.19;4976718;28;20446;-69
2022/05/13 08:30:51;;;;;;;27.20;15.40;;;;;;;37.70;44.23;101243.63;4994341;28;20398;-68
2022/05/13 08:33:18;;;;;;;22.83;14.13;;;;;;;37.96;44.27;101231.28;4976872;28;20424;-68
2022/05/13 08:35:51;;;;;;;25.37;13.90;;;;;;;38.05;43.46;101234.13;4976704;28;20480;-69
2022/05/13 08:38:22;;;;;;;21.20;12.07;;;;;;;38.10;43.27;101234.81;4976718;28;20628;-69
2022/05/13 08:40:52;;;;;;;17.47;10.20;;;;;;;37.90;43.39;101229.78;4976695;28;20933;-69
2022/05/13 08:43:25;;;;;;;13.73;9.07;;;;;;;38.28;42.72;101235.09;4994002;28;20604;-69
2022/05/13 08:45:51;;;;;;;16.93;9.50;;;;;;;38.41;42.55;101251.34;4976542;28;20918;-67
2022/05/13 08:48:27;;;;;;;17.57;9.90;;;;;;;38.62;42.06;101253.69;4993962;28;20483;-69
2022/05/13 08:51:11;;;;;;;14.33;8.07;;;;;;;38.79;41.61;101251.16;4960639;28;20910;-69
2022/05/13 08:54:13;;;;;;;22.23;11.90;;;;;;;38.81;41.68;101242.75;4976457;28;20473;-68
2022/05/13 08:56:45;;;;;;;17.20;9.93;;;;;;;38.95;41.66;101238.09;4973688;28;20504;-68
2022/05/13 08:59:26;;;;;;;28.93;10.33;;;;;;;39.07;41.46;101240.28;4976237;28;20420;-68
2022/05/13 09:01:57;;;;;;;20.50;9.00;;;;;;;39.18;40.95;101242.50;4976138;28;20496;-68
2022/05/13 09:04:41;;;;;;;20.07;9.63;;;;;;;39.31;40.94;101240.06;4976205;28;20492;-68
2022/05/13 09:07:14;;;;;;;20.60;11.70;;;;;;;39.28;41.61;101238.75;4993458;28;20880;-67
2022/05/13 09:09:45;;;;;;;18.03;9.07;;;;;;;39.24;41.43;101229.63;4993326;28;20833;-70
2022/05/13 09:12:26;;;;;;;17.37;10.77;;;;;;;39.19;41.87;101233.25;4993420;28;20445;-69
2022/05/13 09:15:07;;;;;;;18.07;10.27;;;;;;;39.19;41.92;101232.44;4975988;28;20905;-68
2022/05/13 09:18:01;;;;;;;18.73;11.10;;;;;;;39.25;41.82;101238.56;4975908;28;20421;-69
2022/05/13 09:20:27;;;;;;;14.83;8.87;;;;;;;39.22;41.64;101248.91;4976240;28;20508;-68
2022/05/13 09:22:56;;;;;;;16.80;9.67;;;;;;;39.02;41.76;101251.25;4975897;28;20433;-68
2022/05/13 09:25:24;;;;;;;14.70;8.47;;;;;;;38.98;42.11;101261.91;4993333;28;20405;-68
2022/05/13 09:28:06;;;;;;;21.70;9.30;;;;;;;38.89;42.46;101255.59;4975738;28;20409;-69
2022/05/13 09:30:38;;;;;;;20.47;9.33;;;;;;;38.84;42.54;101255.69;4975746;28;20560;-70
2022/05/13 09:33:26;;;;;;;11.60;7.43;;;;;;;38.99;42.22;101263.53;4975611;28;20437;-70
2022/05/13 09:35:55;;;;;;;13.00;7.40;;;;;;;38.84;41.83;101258.41;4975564;28;20457;-69
2022/05/13 09:38:25;;;;;;;15.30;9.83;;;;;;;39.13;41.22;101255.34;4975888;28;20417;-68
2022/05/13 09:41:04;;;;;;;16.40;8.93;;;;;;;39.32;41.10;101244.38;4959532;28;20488;-74
2022/05/13 09:43:43;;;;;;;24.23;8.13;;;;;;;39.13;40.52;101245.31;4975372;28;20552;-71
2022/05/13 09:46:36;;;;;;;15.93;8.07;;;;;;;39.07;41.29;101224.81;4975446;28;20417;-71
2022/05/13 09:49:12;;;;;;;10.50;6.60;;;;;;;39.16;41.35;101231.13;4975248;28;20413;-69
2022/05/13 09:51:50;;;;;;;12.17;7.47;;;;;;;39.17;41.58;101231.97;4992801;28;20463;-68
2022/05/13 09:54:22;;;;;;;13.87;8.07;;;;;;;39.36;41.08;101224.47;4975156;28;20441;-68
2022/05/13 09:56:55;;;;;;;15.40;8.93;;;;;;;39.50;40.93;101227.09;4975368;28;20504;-69
2022/05/13 09:59:24;;;;;;;12.27;6.60;;;;;;;39.53;40.45;101237.34;4992535;28;20495;-71
2022/05/13 10:01:53;;;;;;;13.20;7.47;;;;;;;39.50;40.68;101237.97;5009930;28;20464;-69
2022/05/13 10:04:23;;;;;;;13.53;6.63;;;;;;;39.59;40.44;101227.97;4994388;28;20448;-70
2022/05/13 10:06:50;;;;;;;13.40;6.27;;;;;;;39.62;40.30;101240.16;4975008;28;20809;-71
2022/05/13 10:15:37;;;;;;;13.50;8.07;;;;;;;39.15;41.64;101237.66;4992725;28;20476;-69
2022/05/13 10:18:32;;;;;;;13.33;6.27;;;;;;;39.23;41.33;101238.88;4975098;28;20436;-70
2022/05/13 10:21:18;;;;;;;16.87;9.50;;;;;;;39.11;41.84;101233.16;4974311;28;20421;-70
2022/05/13 10:24:21;;;;;;;15.60;7.53;;;;;;;39.10;42.01;101226.09;4992464;28;20405;-70
2022/05/13 10:26:49;;;;;;;17.10;8.83;;;;;;;39.06;42.66;101227.84;4992782;28;20393;-69
2022/05/13 10:29:39;;;;;;;20.03;9.27;;;;;;;38.91;42.87;101226.25;4974835;28;20865;-70
2022/05/13 10:32:32;;;;;;;13.53;10.50;;;;;;;39.03;42.56;101225.72;4974816;28;20417;-69
2022/05/13 10:35:04;;;;;;;17.20;7.50;;;;;;;39.22;41.92;101220.97;4974726;28;20966;-70
2022/05/13 10:37:59;;;;;;;16.37;6.67;;;;;;;39.18;42.18;101220.81;4974868;28;20869;-70
2022/05/13 10:40:31;;;;;;;15.73;7.30;;;;;;;39.26;42.30;101215.75;4974739;28;20515;-70
2022/05/13 10:46:07;;;;;;;14.50;7.57;;;;;;;39.12;42.50;101202.19;4990790;28;20449;-67
2022/05/13 10:48:33;;;;;;;12.93;8.77;;;;;;;39.11;42.58;101195.97;4976068;28;20783;-68
2022/05/13 10:51:18;;;;;;;13.47;7.30;;;;;;;39.13;42.72;101203.81;4974834;28;20421;-71
2022/05/13 10:53:59;;;;;;;19.87;6.07;;;;;;;39.11;41.67;101193.25;4974823;28;20939;-71
2022/05/13 10:56:39;;;;;;;15.63;5.70;;;;;;;39.20;40.67;101199.56;4974542;28;20500;-71
2022/05/13 10:59:42;;;;;;;10.10;5.23;;;;;;;39.36;40.51;101199.22;4974667;28;20512;-71
2022/05/13 11:02:32;;;;;;;14.50;6.30;;;;;;;39.21;40.82;101198.47;4984699;28;20950;-69
2022/05/13 11:05:20;;;;;;;12.10;7.83;;;;;;;39.37;41.26;101188.06;4955383;28;20418;-71
2022/05/13 11:07:57;;;;;;;13.53;6.20;;;;;;;39.30;41.09;101174.13;4972592;28;20402;-71
2022/05/13 11:10:34;;;;;;;15.27;8.63;;;;;;;39.34;41.22;101168.88;4939563;28;20422;-72
2022/05/13 11:13:23;;;;;;;10.20;5.83;;;;;;;39.58;40.91;101158.47;4954829;28;20934;-68
2022/05/13 11:16:05;;;;;;;29.10;6.40;;;;;;;39.40;41.03;101148.63;4972551;28;20473;-70
2022/05/13 11:18:41;;;;;;;9.83;5.60;;;;;;;39.50;41.04;101145.66;4972661;28;21027;-70
2022/05/13 11:21:35;;;;;;;11.07;6.03;;;;;;;39.50;40.74;101145.66;4952588;28;20480;-69
2022/05/13 11:27:27;;;;;;;17.43;7.50;;;;;;;39.27;41.53;101128.59;4958115;28;20436;-69
2022/05/13 11:30:10;;;;;;;11.07;6.80;;;;;;;39.23;41.09;101123.00;4954993;28;20441;-69
2022/05/13 11:32:52;;;;;;;14.80;7.40;;;;;;;39.15;41.72;101129.13;4942149;28;20437;-69
2022/05/13 11:35:39;;;;;;;23.33;5.60;;;;;;;39.20;41.45;101139.88;4957337;28;20469;-68
2022/05/13 11:38:38;;;;;;;12.30;6.00;;;;;;;39.28;41.15;101134.81;4954638;28;20964;-68
2022/05/13 11:41:10;;;;;;;12.30;5.13;;;;;;;39.37;41.10;101151.97;4956845;28;20434;-68
2022/05/13 11:44:02;;;;;;;10.00;6.03;;;;;;;39.30;41.25;101146.97;4956914;28;20460;-69
2022/05/13 11:46:30;;;;;;;14.20;5.77;;;;;;;39.34;41.42;101158.00;4955610;28;20458;-69
2022/05/13 11:49:11;;;;;;;8.73;6.00;;;;;;;39.14;41.47;101143.78;4956475;28;20995;-73
2022/05/13 11:51:38;;;;;;;12.17;6.00;;;;;;;39.25;41.68;101138.97;4956427;28;20453;-74
2022/05/13 11:54:04;;;;;;;17.73;5.93;;;;;;;39.42;40.79;101128.22;4956325;28;20429;-72
2022/05/13 11:56:34;;;;;;;11.53;5.30;;;;;;;39.53;40.80;101112.44;4971143;28;20452;-69